Time;durP1;ratioP1;P1;durP2;ratioP2;P2;SDS_P1;SDS_P2;PMS_P1;PMS_P2;Temp;Humidity;BMP_temperature;BMP_pressure;BME280_temperature;BME280_humidity;BME280_pressure;Samples;Min_cycle;Max_cycle;Signal;HPM_P1;HPM_P2
2022/03/03 00:01:48;;;;;;;166.15;61.75;;;;;;;;;;4956439;28;100668;-72
2022/03/03 00:04:15;;;;;;;181.75;66.03;;;;;;;;;;4972915;28;100156;-72
2022/03/03 00:06:42;;;;;;;175.68;62.97;;;;;;;;;;4973917;28;100010;-72
2022/03/03 00:09:08;;;;;;;157.52;61.22;;;;;;;;;;4972608;28;100245;-72
2022/03/03 00:11:35;;;;;;;187.73;64.30;;;;;;;;;;4956756;28;100611;-72
2022/03/03 00:14:02;;;;;;;148.68;55.47;;;;;;;;;;4972894;28;100156;-72
2022/03/03 00:16:29;;;;;;;162.40;56.08;;;;;;;;;;4957205;28;100081;-72
2022/03/03 00:18:56;;;;;;;159.35;55.53;;;;;;;;;;4956115;28;102621;-72
2022/03/03 00:21:23;;;;;;;166.15;60.60;;;;;;;;;;4956819;28;100573;-72
2022/03/03 00:23:50;;;;;;;143.98;54.28;;;;;;;;;;4972379;28;100035;-72
2022/03/03 00:26:16;;;;;;;168.38;57.33;;;;;;;;;;4972940;28;99951;-72
2022/03/03 00:28:43;;;;;;;161.02;57.78;;;;;;;;;;4969639;28;100129;-72
2022/03/03 00:31:10;;;;;;;158.73;56.80;;;;;;;;;;4939854;28;100764;-72
2022/03/03 00:33:37;;;;;;;125.57;48.72;;;;;;;;;;4972958;28;100140;-72
2022/03/03 00:36:04;;;;;;;156.32;54.88;;;;;;;;;;4973299;28;100151;-72
2022/03/03 00:38:30;;;;;;;155.73;54.80;;;;;;;;;;4973653;28;100136;-72
2022/03/03 00:40:57;;;;;;;145.75;51.97;;;;;;;;;;4973610;28;100521;-72
2022/03/03 00:43:24;;;;;;;131.60;47.60;;;;;;;;;;4973847;28;100033;-72
2022/03/03 00:45:51;;;;;;;150.57;56.88;;;;;;;;;;4940176;28;100147;-72
2022/03/03 00:48:17;;;;;;;146.82;53.40;;;;;;;;;;4973255;28;100569;-72
2022/03/03 00:50:44;;;;;;;142.90;52.05;;;;;;;;;;4973197;28;100585;-72
2022/03/03 00:53:11;;;;;;;162.23;57.92;;;;;;;;;;4972135;28;99948;-73
2022/03/03 00:55:38;;;;;;;129.93;49.45;;;;;;;;;;4972367;28;100839;-72
2022/03/03 00:58:05;;;;;;;135.10;51.60;;;;;;;;;;4973070;28;100335;-73
2022/03/03 01:00:32;;;;;;;138.27;51.85;;;;;;;;;;4973250;28;100667;-72
2022/03/03 01:02:59;;;;;;;126.47;47.45;;;;;;;;;;4972072;28;100037;-72
2022/03/03 01:05:26;;;;;;;154.77;56.30;;;;;;;;;;4956588;28;101539;-72
2022/03/03 01:07:53;;;;;;;137.48;50.88;;;;;;;;;;4971392;28;100298;-72
2022/03/03 01:10:20;;;;;;;140.38;47.63;;;;;;;;;;4971918;28;100642;-72
2022/03/03 01:12:46;;;;;;;162.23;57.55;;;;;;;;;;4973466;28;100108;-72
2022/03/03 01:15:13;;;;;;;159.00;56.60;;;;;;;;;;4972292;28;100117;-72
2022/03/03 01:17:40;;;;;;;122.82;46.85;;;;;;;;;;4971210;28;101576;-72
2022/03/03 01:20:08;;;;;;;109.20;44.45;;;;;;;;;;4971940;28;100630;-72
2022/03/03 01:22:34;;;;;;;135.77;51.75;;;;;;;;;;4955774;28;100211;-72
2022/03/03 01:25:01;;;;;;;131.93;52.05;;;;;;;;;;4955963;28;100397;-72
2022/03/03 01:27:31;;;;;;;140.15;51.72;;;;;;;;;;4970956;28;100419;-72
2022/03/03 01:29:57;;;;;;;138.85;50.05;;;;;;;;;;4971262;28;100531;-73
2022/03/03 01:32:24;;;;;;;126.97;47.60;;;;;;;;;;4973079;28;100041;-72
2022/03/03 01:34:51;;;;;;;128.52;47.17;;;;;;;;;;4973161;28;100008;-72
2022/03/03 01:37:18;;;;;;;124.18;45.80;;;;;;;;;;4972523;28;100853;-72
2022/03/03 01:39:44;;;;;;;112.82;42.83;;;;;;;;;;4970606;28;102142;-73
2022/03/03 01:42:13;;;;;;;137.25;51.35;;;;;;;;;;4971209;28;99998;-72
2022/03/03 01:44:44;;;;;;;130.73;50.35;;;;;;;;;;4970478;28;100093;-72
2022/03/03 01:47:19;;;;;;;111.95;42.38;;;;;;;;;;4971664;28;100253;-72
2022/03/03 01:49:47;;;;;;;122.38;43.72;;;;;;;;;;4971328;28;102961;-73
2022/03/03 01:52:13;;;;;;;121.22;44.45;;;;;;;;;;4955489;28;100239;-72
2022/03/03 01:54:41;;;;;;;123.80;43.72;;;;;;;;;;4971677;28;100097;-72
2022/03/03 01:57:07;;;;;;;115.90;43.15;;;;;;;;;;4954521;28;100201;-72
2022/03/03 01:59:34;;;;;;;115.65;43.60;;;;;;;;;;4972497;28;100559;-72
2022/03/03 02:02:02;;;;;;;104.28;39.00;;;;;;;;;;4971158;28;100133;-73
2022/03/03 02:04:29;;;;;;;106.72;42.55;;;;;;;;;;4971377;28;100082;-71
2022/03/03 02:06:56;;;;;;;132.18;45.58;;;;;;;;;;4971047;28;100206;-72
2022/03/03 02:09:23;;;;;;;122.18;42.78;;;;;;;;;;4970945;28;100785;-73
2022/03/03 02:11:49;;;;;;;131.80;43.63;;;;;;;;;;4971207;28;100221;-73
2022/03/03 02:14:16;;;;;;;108.80;39.05;;;;;;;;;;4922747;28;100105;-72
2022/03/03 02:16:43;;;;;;;108.13;39.78;;;;;;;;;;4970833;28;100093;-72
2022/03/03 02:19:17;;;;;;;110.55;41.20;;;;;;;;;;4954170;28;101986;-72
2022/03/03 02:21:53;;;;;;;125.03;43.83;;;;;;;;;;4971103;28;99998;-72
2022/03/03 02:24:20;;;;;;;139.43;50.38;;;;;;;;;;4972752;28;100041;-72
2022/03/03 02:26:47;;;;;;;133.38;48.55;;;;;;;;;;4970571;28;100331;-72
2022/03/03 02:29:14;;;;;;;127.35;46.45;;;;;;;;;;4954044;28;101615;-75
2022/03/03 02:31:40;;;;;;;131.75;47.38;;;;;;;;;;4987087;28;100054;-72
2022/03/03 02:34:08;;;;;;;117.90;42.97;;;;;;;;;;4971483;28;100081;-71
2022/03/03 02:36:35;;;;;;;115.38;45.20;;;;;;;;;;4970563;28;100781;-72
2022/03/03 02:39:03;;;;;;;92.07;35.30;;;;;;;;;;4970176;28;101614;-72
2022/03/03 02:41:29;;;;;;;91.47;35.70;;;;;;;;;;4970841;28;100154;-71
2022/03/03 02:43:57;;;;;;;75.78;30.45;;;;;;;;;;4954708;28;100238;-71
2022/03/03 02:46:24;;;;;;;86.22;31.00;;;;;;;;;;4954074;28;100195;-71
2022/03/03 02:48:51;;;;;;;84.35;32.22;;;;;;;;;;4954238;28;100780;-71
2022/03/03 02:51:17;;;;;;;83.22;29.52;;;;;;;;;;4970699;28;100212;-71
2022/03/03 02:53:44;;;;;;;76.82;28.92;;;;;;;;;;4972095;28;100041;-71
2022/03/03 02:56:11;;;;;;;81.05;31.35;;;;;;;;;;4950762;28;102732;-71
2022/03/03 02:58:38;;;;;;;90.20;35.47;;;;;;;;;;4970229;28;100588;-71
2022/03/03 03:01:05;;;;;;;91.43;36.65;;;;;;;;;;4970445;28;100178;-71
2022/03/03 03:03:32;;;;;;;99.22;37.00;;;;;;;;;;4971659;28;100239;-71
2022/03/03 03:05:59;;;;;;;75.60;30.95;;;;;;;;;;4970583;28;101393;-71
2022/03/03 03:08:26;;;;;;;101.05;36.85;;;;;;;;;;4969825;28;103892;-71
2022/03/03 03:10:55;;;;;;;97.28;33.95;;;;;;;;;;4974185;28;99962;-71
2022/03/03 03:13:22;;;;;;;78.88;30.52;;;;;;;;;;4974307;28;100104;-72
2022/03/03 03:15:48;;;;;;;93.35;34.70;;;;;;;;;;4973503;28;100769;-72
2022/03/03 03:18:19;;;;;;;97.00;38.08;;;;;;;;;;4973213;28;100588;-72
2022/03/03 03:20:48;;;;;;;79.43;31.52;;;;;;;;;;4973293;28;100075;-72
2022/03/03 03:23:16;;;;;;;78.75;32.33;;;;;;;;;;4957108;28;100172;-72
2022/03/03 03:25:45;;;;;;;101.97;35.67;;;;;;;;;;4957188;28;100133;-72
2022/03/03 03:28:13;;;;;;;90.90;33.30;;;;;;;;;;4971788;28;100639;-72
2022/03/03 03:30:40;;;;;;;93.30;35.10;;;;;;;;;;4958185;28;100214;-72
2022/03/03 03:33:07;;;;;;;90.57;35.10;;;;;;;;;;4958083;28;99880;-72
2022/03/03 03:35:34;;;;;;;90.93;35.05;;;;;;;;;;4957254;28;101325;-72
2022/03/03 03:38:04;;;;;;;80.68;31.70;;;;;;;;;;4973688;28;100747;-72
2022/03/03 03:40:31;;;;;;;81.50;31.48;;;;;;;;;;4975290;28;100057;-72
2022/03/03 03:42:57;;;;;;;100.65;37.17;;;;;;;;;;4973538;28;100158;-72
2022/03/03 03:45:24;;;;;;;83.63;33.33;;;;;;;;;;4974152;28;102970;-72
2022/03/03 03:47:51;;;;;;;93.60;36.08;;;;;;;;;;4957260;28;100682;-72
2022/03/03 03:50:18;;;;;;;90.72;32.45;;;;;;;;;;4973329;28;100179;-72
2022/03/03 03:52:44;;;;;;;80.20;32.33;;;;;;;;;;4974740;28;100189;-72
2022/03/03 03:55:11;;;;;;;86.32;34.38;;;;;;;;;;4957060;28;100463;-72
2022/03/03 03:57:38;;;;;;;75.93;31.60;;;;;;;;;;4973278;28;100626;-72
2022/03/03 04:00:08;;;;;;;76.80;29.35;;;;;;;;;;4957375;28;100200;-72
2022/03/03 04:02:44;;;;;;;93.00;34.88;;;;;;;;;;4973210;28;100050;-72
2022/03/03 04:05:11;;;;;;;95.72;35.42;;;;;;;;;;4956834;28;100179;-72
2022/03/03 04:07:39;;;;;;;101.55;36.22;;;;;;;;;;4988442;28;100708;-72
2022/03/03 04:10:06;;;;;;;87.18;34.30;;;;;;;;;;4974329;28;100134;-72
2022/03/03 04:12:33;;;;;;;86.43;32.85;;;;;;;;;;4973286;28;100152;-72
2022/03/03 04:15:01;;;;;;;82.20;33.47;;;;;;;;;;4972818;28;100230;-72
2022/03/03 04:17:32;;;;;;;93.07;35.67;;;;;;;;;;4957375;28;100530;-72
2022/03/03 04:20:05;;;;;;;99.50;37.58;;;;;;;;;;4972419;28;100072;-72
2022/03/03 04:22:32;;;;;;;91.07;34.85;;;;;;;;;;4974189;28;100479;-72
2022/03/03 04:24:59;;;;;;;89.70;34.33;;;;;;;;;;4989637;28;100116;-72
2022/03/03 04:27:26;;;;;;;94.95;37.92;;;;;;;;;;4972881;28;100544;-72
2022/03/03 04:29:53;;;;;;;90.72;34.10;;;;;;;;;;4956547;28;100200;-72
2022/03/03 04:32:20;;;;;;;107.68;41.55;;;;;;;;;;4974107;28;99926;-72
2022/03/03 04:34:46;;;;;;;84.13;34.50;;;;;;;;;;4973410;28;100289;-72
2022/03/03 04:37:13;;;;;;;85.95;34.97;;;;;;;;;;4972701;28;100659;-72
2022/03/03 04:39:40;;;;;;;84.20;34.22;;;;;;;;;;4967437;28;100057;-71
2022/03/03 04:42:07;;;;;;;81.43;31.90;;;;;;;;;;4974352;28;99953;-71
2022/03/03 04:44:34;;;;;;;86.97;33.97;;;;;;;;;;4973094;28;102330;-72
2022/03/03 04:47:01;;;;;;;79.43;32.22;;;;;;;;;;4939975;28;103574;-72
2022/03/03 04:49:28;;;;;;;71.13;27.35;;;;;;;;;;4972670;28;100042;-72
2022/03/03 04:51:55;;;;;;;82.38;34.22;;;;;;;;;;4974093;28;100096;-72
2022/03/03 04:54:22;;;;;;;79.43;31.90;;;;;;;;;;4956101;28;100220;-72
2022/03/03 04:56:51;;;;;;;88.80;32.50;;;;;;;;;;4973454;28;100695;-72
2022/03/03 04:59:18;;;;;;;73.38;29.38;;;;;;;;;;4971923;28;100096;-72
2022/03/03 05:01:45;;;;;;;82.40;31.88;;;;;;;;;;4973125;28;100470;-72
2022/03/03 05:04:12;;;;;;;80.45;30.73;;;;;;;;;;4956030;28;102738;-72
2022/03/03 05:06:47;;;;;;;73.35;29.33;;;;;;;;;;4971365;28;102248;-72
2022/03/03 05:09:14;;;;;;;87.10;32.70;;;;;;;;;;4972330;28;100136;-71
2022/03/03 05:11:41;;;;;;;85.07;30.58;;;;;;;;;;4973686;28;99881;-71
2022/03/03 05:14:08;;;;;;;72.68;28.35;;;;;;;;;;4955799;28;100226;-71
2022/03/03 05:16:35;;;;;;;76.65;32.25;;;;;;;;;;4973384;28;100606;-71
2022/03/03 05:19:04;;;;;;;77.65;31.73;;;;;;;;;;4972040;28;99996;-71
2022/03/03 05:21:34;;;;;;;67.45;27.45;;;;;;;;;;4972167;28;99902;-72
2022/03/03 05:24:01;;;;;;;70.78;29.23;;;;;;;;;;4972515;28;100077;-71
2022/03/03 05:26:27;;;;;;;69.65;26.63;;;;;;;;;;4988243;28;100595;-72
2022/03/03 05:28:54;;;;;;;73.90;28.13;;;;;;;;;;4973673;28;99835;-72
2022/03/03 05:31:21;;;;;;;69.53;26.35;;;;;;;;;;4971378;28;100034;-72
2022/03/03 05:33:48;;;;;;;67.53;26.73;;;;;;;;;;4972347;28;100232;-71
2022/03/03 05:36:15;;;;;;;67.80;26.88;;;;;;;;;;4955197;28;102099;-72
2022/03/03 05:38:41;;;;;;;79.05;30.90;;;;;;;;;;4955238;28;100151;-72
2022/03/03 05:41:08;;;;;;;75.80;29.20;;;;;;;;;;4973227;28;100085;-72
2022/03/03 05:43:35;;;;;;;65.65;24.65;;;;;;;;;;4938935;28;101321;-71
2022/03/03 05:46:02;;;;;;;54.67;22.52;;;;;;;;;;4972481;28;100844;-71
2022/03/03 05:48:29;;;;;;;56.00;22.35;;;;;;;;;;4972243;28;101919;-72
2022/03/03 05:50:56;;;;;;;62.78;25.50;;;;;;;;;;4955913;28;99993;-71
2022/03/03 05:53:23;;;;;;;67.13;25.65;;;;;;;;;;4972263;28;101317;-73
2022/03/03 05:55:52;;;;;;;72.95;28.02;;;;;;;;;;4988068;28;101722;-71
2022/03/03 05:58:25;;;;;;;64.05;26.70;;;;;;;;;;4951731;28;99990;-72
2022/03/03 06:00:54;;;;;;;69.88;27.52;;;;;;;;;;4971623;28;100026;-72
2022/03/03 06:03:22;;;;;;;60.03;23.52;;;;;;;;;;4971242;28;102934;-72
2022/03/03 06:05:50;;;;;;;68.53;27.00;;;;;;;;;;4972089;28;100568;-71
2022/03/03 06:08:20;;;;;;;59.95;23.05;;;;;;;;;;4972762;28;100105;-71
2022/03/03 06:10:51;;;;;;;60.75;22.65;;;;;;;;;;4971379;28;99926;-72
2022/03/03 06:13:27;;;;;;;62.22;23.42;;;;;;;;;;4972010;28;100454;-71
2022/03/03 06:15:54;;;;;;;54.33;20.38;;;;;;;;;;4971014;28;100714;-72
2022/03/03 06:18:27;;;;;;;51.67;20.63;;;;;;;;;;4972789;28;100184;-72
2022/03/03 06:20:53;;;;;;;61.00;25.67;;;;;;;;;;4972810;28;99981;-72
2022/03/03 06:23:20;;;;;;;55.83;20.98;;;;;;;;;;4970846;28;100188;-72
2022/03/03 06:25:49;;;;;;;65.13;22.70;;;;;;;;;;4972043;28;100869;-72
2022/03/03 06:28:16;;;;;;;63.17;24.85;;;;;;;;;;4955316;28;102745;-72
2022/03/03 06:30:42;;;;;;;48.65;20.85;;;;;;;;;;4971612;28;100098;-73
2022/03/03 06:33:09;;;;;;;60.63;23.48;;;;;;;;;;4970712;28;100598;-71
2022/03/03 06:35:37;;;;;;;66.80;26.98;;;;;;;;;;4970643;28;105564;-71
2022/03/03 06:38:05;;;;;;;58.88;24.75;;;;;;;;;;4971021;28;100491;-71
2022/03/03 06:40:32;;;;;;;70.93;28.27;;;;;;;;;;4972369;28;99982;-72
2022/03/03 06:43:02;;;;;;;62.67;24.15;;;;;;;;;;4954340;28;100386;-72
2022/03/03 06:45:29;;;;;;;61.35;25.77;;;;;;;;;;4970658;28;101120;-72
2022/03/03 06:48:02;;;;;;;68.43;27.35;;;;;;;;;;4970568;28;100126;-72
2022/03/03 06:50:29;;;;;;;72.35;27.85;;;;;;;;;;4971108;28;100084;-73
2022/03/03 06:52:58;;;;;;;58.00;25.90;;;;;;;;;;4970823;28;100288;-72
2022/03/03 06:55:25;;;;;;;58.65;24.17;;;;;;;;;;4954823;28;100903;-72
2022/03/03 06:57:56;;;;;;;60.53;25.48;;;;;;;;;;4971051;28;100084;-71
2022/03/03 07:00:25;;;;;;;63.30;26.33;;;;;;;;;;4938915;28;100132;-71
2022/03/03 07:02:53;;;;;;;55.70;23.58;;;;;;;;;;4970090;28;100405;-72
2022/03/03 07:05:21;;;;;;;72.43;27.35;;;;;;;;;;4971747;28;100549;-71
2022/03/03 07:07:49;;;;;;;48.92;22.05;;;;;;;;;;4954300;28;100321;-72
2022/03/03 07:10:35;;;;;;;52.85;21.40;;;;;;;;;;4954890;28;100105;-72
2022/03/03 07:13:02;;;;;;;57.63;24.58;;;;;;;;;;4954405;28;100446;-72
2022/03/03 07:15:29;;;;;;;57.45;24.25;;;;;;;;;;4971254;28;100540;-72
2022/03/03 07:18:05;;;;;;;57.05;23.15;;;;;;;;;;4971069;28;99947;-72
2022/03/03 07:20:59;;;;;;;65.53;25.70;;;;;;;;;;4970991;28;100484;-72
2022/03/03 07:23:37;;;;;;;50.33;22.52;;;;;;;;;;4971168;28;101260;-72
2022/03/03 07:26:10;;;;;;;54.15;21.88;;;;;;;;;;4954969;28;100602;-72
2022/03/03 07:28:41;;;;;;;49.45;20.17;;;;;;;;;;4970142;28;100681;-71
2022/03/03 07:31:07;;;;;;;58.00;23.27;;;;;;;;;;4970419;28;99951;-72
2022/03/03 07:34:01;;;;;;;63.55;25.55;;;;;;;;;;4953862;28;100217;-72
2022/03/03 07:36:31;;;;;;;55.40;22.15;;;;;;;;;;4965149;28;103183;-72
2022/03/03 07:39:06;;;;;;;59.08;24.33;;;;;;;;;;4955436;28;100048;-72
2022/03/03 07:41:33;;;;;;;49.28;22.40;;;;;;;;;;4970222;28;100219;-72
2022/03/03 07:44:00;;;;;;;59.92;23.77;;;;;;;;;;4971344;28;100252;-72
2022/03/03 07:46:27;;;;;;;62.35;25.35;;;;;;;;;;4969882;28;101075;-72
2022/03/03 07:48:54;;;;;;;59.33;23.38;;;;;;;;;;4953758;28;99958;-72
2022/03/03 07:51:21;;;;;;;58.45;23.48;;;;;;;;;;4954169;28;99938;-72
2022/03/03 07:53:48;;;;;;;62.17;26.27;;;;;;;;;;4953243;28;100123;-72
2022/03/03 07:56:21;;;;;;;55.53;22.92;;;;;;;;;;4973264;28;101134;-71
2022/03/03 07:58:48;;;;;;;59.47;24.23;;;;;;;;;;4957552;28;100201;-71
2022/03/03 08:01:18;;;;;;;66.03;24.45;;;;;;;;;;4973813;28;100010;-71
2022/03/03 08:03:45;;;;;;;52.10;23.48;;;;;;;;;;4972610;28;100229;-72
2022/03/03 08:06:13;;;;;;;59.28;24.23;;;;;;;;;;4972661;28;100826;-72
2022/03/03 08:08:40;;;;;;;48.03;21.35;;;;;;;;;;4972702;28;100120;-72
2022/03/03 08:11:08;;;;;;;58.35;23.80;;;;;;;;;;4973800;28;102182;-72
2022/03/03 08:13:35;;;;;;;45.63;20.95;;;;;;;;;;4956811;28;100799;-72
2022/03/03 08:16:02;;;;;;;60.03;25.48;;;;;;;;;;4956897;28;100570;-72
2022/03/03 08:18:35;;;;;;;47.90;21.25;;;;;;;;;;4957028;28;100156;-72
2022/03/03 08:21:03;;;;;;;39.22;17.88;;;;;;;;;;4973198;28;100104;-72
2022/03/03 08:23:31;;;;;;;65.57;25.55;;;;;;;;;;4973842;28;100467;-72
2022/03/03 08:25:58;;;;;;;50.00;22.38;;;;;;;;;;4989023;28;100540;-72
2022/03/03 08:28:25;;;;;;;69.72;28.75;;;;;;;;;;4940996;28;100320;-72
2022/03/03 08:30:58;;;;;;;54.33;24.75;;;;;;;;;;4973022;28;100051;-72
2022/03/03 08:33:47;;;;;;;50.10;23.02;;;;;;;;;;4956868;28;102347;-72
2022/03/03 08:36:56;;;;;;;53.40;23.80;;;;;;;;;;4974065;28;100652;-71
2022/03/03 08:39:28;;;;;;;50.13;24.08;;;;;;;;;;4970445;28;99984;-71
2022/03/03 08:41:57;;;;;;;52.08;23.92;;;;;;;;;;4992253;28;100169;-71
2022/03/03 08:44:43;;;;;;;59.65;25.92;;;;;;;;;;4971841;28;100391;-72
2022/03/03 08:47:15;;;;;;;58.97;24.13;;;;;;;;;;4956176;28;101982;-72
2022/03/03 08:49:43;;;;;;;45.83;20.95;;;;;;;;;;4971366;28;100119;-72
2022/03/03 08:52:11;;;;;;;58.47;24.15;;;;;;;;;;4956838;28;100054;-72
2022/03/03 08:54:38;;;;;;;46.80;20.13;;;;;;;;;;4973642;28;100325;-72
2022/03/03 08:57:05;;;;;;;59.90;25.20;;;;;;;;;;4972109;28;103732;-72
2022/03/03 08:59:32;;;;;;;46.78;21.48;;;;;;;;;;4973727;28;101648;-72
2022/03/03 09:01:58;;;;;;;54.20;25.38;;;;;;;;;;4974210;28;100029;-72
2022/03/03 09:04:30;;;;;;;54.30;24.08;;;;;;;;;;4973106;28;100688;-72
2022/03/03 09:07:03;;;;;;;55.10;24.23;;;;;;;;;;4972560;28;103180;-72
2022/03/03 09:09:30;;;;;;;46.92;20.08;;;;;;;;;;4974652;28;100287;-71
2022/03/03 09:12:03;;;;;;;51.90;21.85;;;;;;;;;;4975417;28;100118;-72
2022/03/03 09:14:32;;;;;;;49.17;21.35;;;;;;;;;;4991126;28;100280;-71
2022/03/03 09:16:59;;;;;;;52.88;22.83;;;;;;;;;;4974396;28;100540;-71
2022/03/03 09:19:27;;;;;;;50.30;20.55;;;;;;;;;;4958629;28;100109;-72
2022/03/03 09:21:55;;;;;;;41.97;19.48;;;;;;;;;;4958033;28;100150;-72
2022/03/03 09:24:23;;;;;;;48.63;22.90;;;;;;;;;;4974634;28;100359;-72
2022/03/03 09:26:51;;;;;;;45.72;19.92;;;;;;;;;;4974854;28;100885;-72
2022/03/03 09:29:21;;;;;;;52.25;23.27;;;;;;;;;;4990845;28;100280;-72
2022/03/03 09:31:51;;;;;;;39.90;20.23;;;;;;;;;;4941999;28;100070;-72
2022/03/03 09:34:18;;;;;;;40.63;17.55;;;;;;;;;;4941801;28;100974;-72
2022/03/03 09:36:51;;;;;;;36.17;16.20;;;;;;;;;;4974504;28;100752;-72
2022/03/03 09:39:17;;;;;;;42.90;19.30;;;;;;;;;;4950528;28;100087;-72
2022/03/03 09:41:44;;;;;;;44.90;20.40;;;;;;;;;;4973600;28;100037;-72
2022/03/03 09:44:13;;;;;;;30.08;14.73;;;;;;;;;;4971687;28;100860;-72
2022/03/03 09:46:41;;;;;;;31.17;15.40;;;;;;;;;;4972749;28;100591;-72
2022/03/03 09:49:07;;;;;;;27.98;13.43;;;;;;;;;;4973535;28;100183;-72
2022/03/03 09:51:34;;;;;;;20.92;10.15;;;;;;;;;;4956351;28;100089;-72
2022/03/03 09:54:01;;;;;;;24.10;11.05;;;;;;;;;;4972731;28;100129;-72
2022/03/03 09:56:28;;;;;;;27.45;13.40;;;;;;;;;;4971432;28;101208;-72
2022/03/03 09:58:55;;;;;;;30.00;13.43;;;;;;;;;;4972824;28;99875;-72
2022/03/03 10:01:21;;;;;;;30.85;15.25;;;;;;;;;;4971914;28;100144;-71
2022/03/03 10:03:49;;;;;;;32.33;15.30;;;;;;;;;;4955347;28;100275;-71
2022/03/03 10:06:20;;;;;;;32.88;14.93;;;;;;;;;;4971098;28;100618;-71
2022/03/03 10:08:49;;;;;;;30.90;15.15;;;;;;;;;;4972796;28;100053;-71
2022/03/03 10:11:16;;;;;;;30.95;15.35;;;;;;;;;;4988271;28;100070;-71
2022/03/03 10:13:50;;;;;;;35.10;16.70;;;;;;;;;;4955185;28;100279;-71
2022/03/03 10:16:29;;;;;;;33.80;16.17;;;;;;;;;;4971719;28;100874;-73
2022/03/03 10:19:01;;;;;;;33.85;16.85;;;;;;;;;;4971499;28;99978;-72
2022/03/03 10:21:28;;;;;;;36.10;17.58;;;;;;;;;;4987762;28;100142;-72
2022/03/03 10:23:55;;;;;;;33.30;16.80;;;;;;;;;;4987010;28;100170;-71
2022/03/03 10:26:33;;;;;;;29.58;15.18;;;;;;;;;;4970519;28;100710;-72
2022/03/03 10:29:00;;;;;;;31.08;15.07;;;;;;;;;;4939545;28;100196;-72
2022/03/03 10:31:28;;;;;;;33.88;14.93;;;;;;;;;;4971587;28;100146;-71
2022/03/03 10:33:55;;;;;;;37.97;18.25;;;;;;;;;;4987434;28;101560;-72
2022/03/03 10:36:23;;;;;;;34.83;15.25;;;;;;;;;;4970907;28;100606;-72
2022/03/03 10:39:00;;;;;;;26.17;12.65;;;;;;;;;;4971041;28;100144;-72
2022/03/03 10:41:31;;;;;;;28.50;13.73;;;;;;;;;;4971554;28;100012;-73
2022/03/03 10:44:00;;;;;;;29.33;13.65;;;;;;;;;;4971135;28;102989;-73
2022/03/03 10:46:28;;;;;;;26.42;12.43;;;;;;;;;;4955096;28;100602;-71
2022/03/03 10:48:55;;;;;;;24.38;11.70;;;;;;;;;;4970749;28;99917;-72
2022/03/03 10:51:24;;;;;;;29.00;11.95;;;;;;;;;;4970833;28;100022;-72
2022/03/03 10:53:58;;;;;;;22.77;10.20;;;;;;;;;;4970478;28;100907;-72
2022/03/03 10:56:24;;;;;;;23.83;10.05;;;;;;;;;;4938399;28;100736;-72
2022/03/03 10:58:53;;;;;;;21.27;9.23;;;;;;;;;;4971010;28;100290;-72
2022/03/03 11:01:28;;;;;;;22.45;10.50;;;;;;;;;;4938704;28;99871;-71
2022/03/03 11:03:55;;;;;;;20.83;10.35;;;;;;;;;;4971682;28;100184;-73
2022/03/03 11:06:24;;;;;;;28.30;11.57;;;;;;;;;;4969650;28;100794;-72
2022/03/03 11:08:53;;;;;;;22.63;10.23;;;;;;;;;;4954891;28;100064;-72
2022/03/03 11:11:20;;;;;;;25.60;11.50;;;;;;;;;;4970942;28;100093;-72
2022/03/03 11:13:49;;;;;;;31.38;13.35;;;;;;;;;;4971309;28;100169;-72
2022/03/03 11:16:17;;;;;;;28.25;13.48;;;;;;;;;;4955158;28;100820;-72
2022/03/03 11:18:44;;;;;;;25.65;10.98;;;;;;;;;;4987300;28;100116;-72
2022/03/03 11:21:12;;;;;;;25.45;11.85;;;;;;;;;;4970990;28;100223;-73
2022/03/03 11:23:44;;;;;;;28.05;12.38;;;;;;;;;;4971562;28;100258;-72
2022/03/03 11:26:41;;;;;;;24.02;10.32;;;;;;;;;;4970348;28;100854;-72
2022/03/03 11:29:12;;;;;;;23.83;10.70;;;;;;;;;;4970099;28;100047;-72
2022/03/03 11:32:01;;;;;;;25.10;11.95;;;;;;;;;;4975640;28;99792;-73
2022/03/03 11:34:32;;;;;;;25.95;12.52;;;;;;;;;;4975922;28;100148;-72
2022/03/03 11:37:04;;;;;;;26.80;12.63;;;;;;;;;;4975172;28;101184;-72
2022/03/03 11:40:01;;;;;;;31.90;13.55;;;;;;;;;;4975289;28;100086;-72
2022/03/03 11:42:35;;;;;;;27.35;12.90;;;;;;;;;;4977305;28;99835;-73
2022/03/03 11:45:13;;;;;;;36.85;12.68;;;;;;;;;;4975061;28;100206;-72
2022/03/03 11:47:48;;;;;;;31.58;14.18;;;;;;;;;;4974954;28;100846;-73
2022/03/03 11:50:17;;;;;;;28.80;13.57;;;;;;;;;;4975719;28;99804;-72
2022/03/03 11:52:56;;;;;;;27.90;11.73;;;;;;;;;;4974279;28;100229;-72
2022/03/03 11:55:39;;;;;;;25.95;12.63;;;;;;;;;;4975202;28;100393;-72
2022/03/03 11:58:07;;;;;;;31.20;12.38;;;;;;;;;;4974950;28;101671;-72
2022/03/03 12:01:05;;;;;;;28.05;13.63;;;;;;;;;;4957938;28;99990;-72
2022/03/03 12:03:38;;;;;;;29.17;12.98;;;;;;;;;;4989855;28;100142;-72
2022/03/03 12:06:09;;;;;;;36.53;14.07;;;;;;;;;;4962184;28;100380;-72
2022/03/03 12:08:39;;;;;;;30.63;14.02;;;;;;;;;;4973523;28;100676;-72
2022/03/03 12:11:11;;;;;;;28.45;11.68;;;;;;;;;;4982476;28;100003;-72
2022/03/03 12:13:38;;;;;;;33.17;14.70;;;;;;;;;;4965684;28;100076;-72
2022/03/03 12:16:15;;;;;;;34.33;14.45;;;;;;;;;;4973131;28;102046;-72
2022/03/03 12:18:42;;;;;;;29.67;13.25;;;;;;;;;;4974162;28;100537;-75
2022/03/03 12:21:34;;;;;;;35.80;14.98;;;;;;;;;;4975075;28;99986;-72
2022/03/03 12:24:27;;;;;;;28.95;13.93;;;;;;;;;;4974156;28;102142;-72
2022/03/03 12:26:58;;;;;;;34.30;16.58;;;;;;;;;;4973070;28;100939;-71
2022/03/03 12:29:51;;;;;;;41.72;18.55;;;;;;;;;;4974477;28;100601;-72
2022/03/03 12:32:42;;;;;;;38.20;17.67;;;;;;;;;;4973366;28;100571;-72
2022/03/03 12:35:26;;;;;;;37.20;17.38;;;;;;;;;;4965171;28;99931;-72
2022/03/03 12:37:58;;;;;;;39.85;17.38;;;;;;;;;;4974347;28;100310;-72
2022/03/03 12:40:29;;;;;;;40.70;16.60;;;;;;;;;;4956060;28;101281;-72
2022/03/03 12:42:57;;;;;;;32.88;15.48;;;;;;;;;;4957858;28;100043;-72
2022/03/03 12:45:24;;;;;;;44.80;17.52;;;;;;;;;;4974690;28;100045;-72
2022/03/03 12:47:53;;;;;;;38.28;16.45;;;;;;;;;;4972825;28;100610;-73
2022/03/03 12:50:26;;;;;;;40.30;17.42;;;;;;;;;;4973305;28;100530;-73
2022/03/03 12:53:10;;;;;;;42.55;17.27;;;;;;;;;;4957292;28;100110;-72
2022/03/03 12:55:43;;;;;;;36.63;17.25;;;;;;;;;;4973403;28;100031;-72
2022/03/03 12:58:11;;;;;;;46.90;18.63;;;;;;;;;;4973642;28;100672;-71
2022/03/03 13:00:40;;;;;;;35.97;16.95;;;;;;;;;;4973939;28;101233;-71
2022/03/03 13:03:08;;;;;;;42.20;19.02;;;;;;;;;;4974544;28;99833;-72
2022/03/03 13:05:43;;;;;;;49.28;21.30;;;;;;;;;;4956632;28;100030;-72
2022/03/03 13:08:30;;;;;;;51.45;22.63;;;;;;;;;;4956240;28;100279;-72
2022/03/03 13:10:59;;;;;;;43.38;18.88;;;;;;;;;;4973443;28;101877;-72
2022/03/03 13:13:28;;;;;;;43.92;18.88;;;;;;;;;;4972962;28;99845;-72
2022/03/03 13:15:55;;;;;;;40.47;18.00;;;;;;;;;;4972977;28;100072;-73
2022/03/03 13:18:25;;;;;;;44.22;17.63;;;;;;;;;;4973918;28;100300;-72
2022/03/03 13:20:56;;;;;;;44.42;19.90;;;;;;;;;;4973380;28;100781;-72
2022/03/03 13:23:28;;;;;;;39.95;18.45;;;;;;;;;;4988236;28;99890;-72
2022/03/03 13:26:08;;;;;;;53.33;20.17;;;;;;;;;;4925481;28;100036;-72
2022/03/03 13:28:40;;;;;;;40.60;18.70;;;;;;;;;;4973279;28;101355;-72
2022/03/03 13:31:11;;;;;;;39.63;18.33;;;;;;;;;;4972396;28;100583;-72
2022/03/03 13:33:56;;;;;;;43.42;18.23;;;;;;;;;;4973833;28;99770;-72
2022/03/03 13:36:26;;;;;;;40.00;17.20;;;;;;;;;;4972529;28;100107;-72
2022/03/03 13:39:00;;;;;;;42.63;19.75;;;;;;;;;;4973407;28;100329;-72
2022/03/03 13:41:37;;;;;;;37.78;17.20;;;;;;;;;;4973561;28;100875;-72
2022/03/03 13:44:21;;;;;;;45.95;17.15;;;;;;;;;;4956322;28;99918;-72
2022/03/03 13:46:56;;;;;;;33.47;16.25;;;;;;;;;;4973405;28;100132;-73
2022/03/03 13:49:23;;;;;;;42.80;18.55;;;;;;;;;;4970546;28;101635;-71
2022/03/03 13:52:10;;;;;;;41.72;18.38;;;;;;;;;;4973256;28;100654;-73
2022/03/03 13:54:43;;;;;;;44.70;19.02;;;;;;;;;;4972449;28;99957;-72
2022/03/03 13:57:37;;;;;;;33.70;16.23;;;;;;;;;;4973544;28;99938;-72
2022/03/03 14:00:11;;;;;;;39.67;16.58;;;;;;;;;;4972530;28;100294;-71
2022/03/03 14:03:01;;;;;;;36.70;17.75;;;;;;;;;;4971408;28;100646;-72
2022/03/03 14:05:35;;;;;;;38.15;16.77;;;;;;;;;;4971975;28;100149;-72
2022/03/03 14:08:04;;;;;;;45.27;20.07;;;;;;;;;;4972584;28;99954;-72
2022/03/03 14:11:07;;;;;;;41.65;18.25;;;;;;;;;;4972496;28;103179;-72
2022/03/03 14:13:47;;;;;;;37.35;16.88;;;;;;;;;;4971905;28;100737;-72
2022/03/03 14:16:14;;;;;;;38.63;17.85;;;;;;;;;;4972574;28;99806;-73
2022/03/03 14:18:41;;;;;;;31.45;15.57;;;;;;;;;;4972017;28;100018;-71
2022/03/03 14:21:08;;;;;;;41.95;17.58;;;;;;;;;;4972590;28;101551;-71